Time;durP1;ratioP1;P1;durP2;ratioP2;P2;SDS_P1;SDS_P2;PMS_P1;PMS_P2;Temp;Humidity;BMP_temperature;BMP_pressure;BME280_temperature;BME280_humidity;BME280_pressure;Samples;Min_cycle;Max_cycle;Signal;HPM_P1;HPM_P2
2023/10/28 00:00:45;;;;;;;34.67;13.02;;;10.40;99.90;;;;;;5118652;28;20016;-57
2023/10/28 00:03:11;;;;;;;32.47;12.35;;;10.20;99.90;;;;;;5119545;28;20027;-57
2023/10/28 00:05:38;;;;;;;26.58;12.00;;;10.20;99.90;;;;;;5119069;28;20055;-57
2023/10/28 00:08:04;;;;;;;72.28;28.95;;;10.30;99.90;;;;;;5119269;28;20037;-57
2023/10/28 00:10:33;;;;;;;50.20;16.45;;;10.20;99.90;;;;;;5119315;28;20111;-57
2023/10/28 00:12:59;;;;;;;29.27;10.55;;;10.20;99.90;;;;;;5119125;28;20032;-57
2023/10/28 00:15:26;;;;;;;34.55;15.10;;;10.30;99.90;;;;;;5119586;28;20110;-57
2023/10/28 00:17:51;;;;;;;35.00;15.52;;;10.40;99.90;;;;;;5118745;28;20495;-57
2023/10/28 00:20:18;;;;;;;37.38;15.75;;;10.30;99.90;;;;;;5118977;28;20027;-57
2023/10/28 00:22:45;;;;;;;32.53;14.18;;;10.30;99.90;;;;;;5119050;28;20464;-57
2023/10/28 00:25:13;;;;;;;25.85;13.23;;;10.30;99.90;;;;;;5119028;28;20027;-57
2023/10/28 00:27:43;;;;;;;24.90;12.52;;;10.30;99.90;;;;;;5118833;28;20038;-57
2023/10/28 00:30:10;;;;;;;20.73;10.00;;;10.20;99.90;;;;;;5118991;28;20032;-57
2023/10/28 00:32:37;;;;;;;26.95;11.02;;;10.20;99.90;;;;;;5118455;28;20043;-57
2023/10/28 00:35:07;;;;;;;20.15;10.95;;;10.10;99.90;;;;;;5118683;28;20109;-57
2023/10/28 00:37:36;;;;;;;28.48;11.30;;;10.10;99.90;;;;;;5118738;28;20028;-57
2023/10/28 00:40:05;;;;;;;27.35;13.02;;;10.00;99.90;;;;;;5118805;28;20024;-57
2023/10/28 00:42:38;;;;;;;29.60;13.95;;;10.00;99.90;;;;;;5100259;28;20028;-57
2023/10/28 00:45:06;;;;;;;33.00;14.43;;;10.00;99.90;;;;;;5118856;28;20015;-57
2023/10/28 00:47:33;;;;;;;29.23;12.88;;;10.00;99.90;;;;;;5118457;28;20059;-57
2023/10/28 00:50:00;;;;;;;26.45;13.20;;;10.00;99.90;;;;;;5118389;28;20036;-57
2023/10/28 00:52:27;;;;;;;45.28;18.80;;;10.00;99.90;;;;;;5118472;28;20109;-57
2023/10/28 00:54:54;;;;;;;27.60;14.05;;;10.00;99.90;;;;;;5100313;28;20032;-57
2023/10/28 00:57:21;;;;;;;34.88;14.90;;;9.90;99.90;;;;;;5117943;28;20122;-57
2023/10/28 00:59:48;;;;;;;34.55;12.32;;;10.00;99.90;;;;;;5118515;28;20059;-57
2023/10/28 01:02:14;;;;;;;37.45;17.42;;;9.90;99.90;;;;;;5099855;28;20031;-57
2023/10/28 01:04:40;;;;;;;38.47;17.38;;;10.00;99.90;;;;;;5117964;28;20050;-57
2023/10/28 01:07:08;;;;;;;30.35;14.10;;;10.00;99.90;;;;;;5099695;28;20028;-57
2023/10/28 01:09:47;;;;;;;28.80;13.90;;;9.90;99.90;;;;;;5099994;28;20033;-57
2023/10/28 01:12:13;;;;;;;25.35;13.10;;;9.90;99.90;;;;;;5117645;28;20035;-57
2023/10/28 01:14:42;;;;;;;21.33;10.35;;;9.90;99.90;;;;;;5099884;28;20031;-57
2023/10/28 01:17:13;;;;;;;22.90;10.40;;;9.70;99.90;;;;;;5099504;28;20094;-57
2023/10/28 01:19:39;;;;;;;25.23;9.85;;;9.70;99.90;;;;;;5117739;28;20031;-57
2023/10/28 01:22:06;;;;;;;25.30;10.68;;;9.70;99.90;;;;;;5099428;28;20560;-57
2023/10/28 01:24:35;;;;;;;26.73;10.70;;;9.80;99.90;;;;;;5117989;28;20058;-57
2023/10/28 01:27:02;;;;;;;23.45;9.30;;;9.80;99.90;;;;;;5098853;28;20381;-57
2023/10/28 01:29:28;;;;;;;31.02;12.00;;;9.80;99.90;;;;;;5114094;28;20047;-57
2023/10/28 01:31:55;;;;;;;30.88;13.48;;;9.80;99.90;;;;;;5092585;28;20020;-57
2023/10/28 01:34:22;;;;;;;40.05;15.27;;;9.90;99.90;;;;;;5096986;28;20028;-57
2023/10/28 01:36:49;;;;;;;27.90;14.90;;;10.00;99.90;;;;;;5079054;28;20409;-57
2023/10/28 01:39:18;;;;;;;32.35;13.48;;;10.10;99.90;;;;;;5097549;28;20024;-57
2023/10/28 01:41:44;;;;;;;25.30;13.15;;;10.20;99.90;;;;;;5078306;28;20039;-57
2023/10/28 01:44:11;;;;;;;32.67;13.00;;;10.10;99.90;;;;;;5079046;28;20031;-57
2023/10/28 01:46:37;;;;;;;21.40;11.52;;;10.10;99.90;;;;;;5096908;28;20462;-57
2023/10/28 01:49:04;;;;;;;21.55;11.48;;;10.00;99.90;;;;;;5112416;28;20036;-57
2023/10/28 01:51:31;;;;;;;21.83;12.57;;;10.10;99.90;;;;;;5078665;28;20426;-57
2023/10/28 01:53:56;;;;;;;20.67;11.45;;;10.20;99.90;;;;;;5078876;28;20115;-57
2023/10/28 01:56:22;;;;;;;17.40;9.60;;;10.10;99.90;;;;;;5096713;28;20032;-57
2023/10/28 01:58:48;;;;;;;19.83;11.90;;;10.10;99.90;;;;;;5096645;28;20078;-57
2023/10/28 02:01:14;;;;;;;30.20;15.85;;;10.10;99.90;;;;;;5112345;28;20062;-57
2023/10/28 02:03:40;;;;;;;27.92;14.90;;;10.10;99.90;;;;;;5096467;28;20127;-57
2023/10/28 02:06:07;;;;;;;25.95;14.52;;;10.10;99.90;;;;;;5096716;28;20038;-57
2023/10/28 02:08:33;;;;;;;25.23;12.70;;;10.00;99.90;;;;;;5096571;28;20024;-57
2023/10/28 02:10:59;;;;;;;20.48;11.25;;;10.00;99.90;;;;;;5078115;28;20035;-57
2023/10/28 02:13:24;;;;;;;18.67;10.55;;;10.00;99.90;;;;;;5103663;28;20473;-57
2023/10/28 02:15:51;;;;;;;19.73;11.95;;;10.10;99.90;;;;;;5096553;28;20051;-57
2023/10/28 02:18:22;;;;;;;23.13;12.68;;;10.10;99.90;;;;;;5094804;28;20059;-57
2023/10/28 02:20:48;;;;;;;;;;;10.20;99.90;;;;;;5097344;28;20242;-57
2023/10/28 02:23:14;;;;;;;41.75;16.05;;;10.30;99.90;;;;;;5111337;28;20183;-57
2023/10/28 02:25:41;;;;;;;29.33;15.60;;;10.40;99.90;;;;;;5104757;28;20524;-57
2023/10/28 02:28:09;;;;;;;40.53;16.73;;;10.50;99.90;;;;;;5117026;28;20066;-57
2023/10/28 02:30:39;;;;;;;35.58;15.95;;;10.50;99.90;;;;;;5116499;28;20040;-57
2023/10/28 02:33:06;;;;;;;46.13;17.07;;;10.50;99.90;;;;;;5098116;28;20469;-58
2023/10/28 02:35:33;;;;;;;31.88;16.77;;;10.50;99.90;;;;;;5116481;28;20027;-58
2023/10/28 02:37:59;;;;;;;36.72;18.40;;;10.50;99.90;;;;;;5098125;28;20059;-57
2023/10/28 02:40:25;;;;;;;40.00;16.85;;;10.50;99.90;;;;;;5116304;28;20491;-57
2023/10/28 02:42:50;;;;;;;29.95;15.75;;;10.50;99.90;;;;;;5098085;28;20047;-57
2023/10/28 02:45:16;;;;;;;29.85;16.20;;;10.50;99.90;;;;;;5116439;28;20161;-57
2023/10/28 02:47:42;;;;;;;28.55;14.77;;;10.40;99.90;;;;;;5116086;28;20031;-57
2023/10/28 02:50:11;;;;;;;29.88;13.45;;;10.50;99.90;;;;;;5116215;28;20032;-57
2023/10/28 02:52:37;;;;;;;21.20;11.90;;;10.60;99.90;;;;;;5116133;28;20038;-57
2023/10/28 02:55:05;;;;;;;21.60;11.05;;;10.40;99.90;;;;;;5097895;28;20451;-57
2023/10/28 02:57:32;;;;;;;18.27;10.60;;;10.30;99.90;;;;;;5093819;28;20043;-57
2023/10/28 02:59:58;;;;;;;22.02;12.23;;;10.20;99.90;;;;;;5097892;28;20042;-58
2023/10/28 03:02:24;;;;;;;26.67;13.75;;;10.30;99.90;;;;;;5073040;28;20111;-57
2023/10/28 03:04:50;;;;;;;23.65;13.02;;;10.30;99.90;;;;;;5057497;28;20468;-57
2023/10/28 03:07:15;;;;;;;18.48;10.20;;;10.30;99.90;;;;;;5078360;28;20027;-57
2023/10/28 03:09:42;;;;;;;22.73;11.00;;;10.40;99.90;;;;;;5095185;28;20036;-57
2023/10/28 03:12:08;;;;;;;18.42;9.50;;;10.40;99.90;;;;;;5077424;28;20027;-57
2023/10/28 03:14:34;;;;;;;22.58;10.23;;;10.40;99.90;;;;;;5095547;28;20481;-57
2023/10/28 03:17:00;;;;;;;20.50;10.02;;;10.30;99.90;;;;;;5066653;28;20469;-57
2023/10/28 03:19:25;;;;;;;16.77;10.30;;;10.30;99.90;;;;;;5056894;28;20115;-57
2023/10/28 03:21:51;;;;;;;17.02;9.65;;;10.30;99.90;;;;;;5057384;28;20037;-57
2023/10/28 03:24:17;;;;;;;20.45;10.52;;;10.20;99.90;;;;;;5073866;28;20024;-57
2023/10/28 03:26:44;;;;;;;28.90;12.15;;;10.20;99.90;;;;;;5092840;28;20028;-57
2023/10/28 03:29:09;;;;;;;27.48;11.38;;;10.20;99.90;;;;;;5095287;28;20553;-57
2023/10/28 03:31:38;;;;;;;38.45;14.02;;;10.20;99.90;;;;;;5095356;28;20024;-57
2023/10/28 03:34:05;;;;;;;25.65;13.40;;;10.10;99.90;;;;;;5096631;28;20051;-57
2023/10/28 03:36:31;;;;;;;28.90;11.48;;;10.20;99.90;;;;;;5099531;28;20028;-57
2023/10/28 03:38:59;;;;;;;32.75;12.40;;;10.30;99.90;;;;;;5099430;28;20039;-57
2023/10/28 03:41:25;;;;;;;23.20;10.18;;;10.20;99.90;;;;;;5081295;28;20051;-57
2023/10/28 03:43:51;;;;;;;22.20;10.80;;;10.20;99.90;;;;;;5099425;28;20020;-57
2023/10/28 03:46:20;;;;;;;18.20;10.38;;;10.00;99.90;;;;;;5099057;28;20035;-57
2023/10/28 03:48:46;;;;;;;21.23;9.07;;;9.80;99.90;;;;;;5099353;28;20039;-57
2023/10/28 03:51:12;;;;;;;20.60;9.43;;;9.80;99.90;;;;;;5099301;28;20038;-57
2023/10/28 03:53:38;;;;;;;20.48;9.32;;;9.70;99.90;;;;;;5099190;28;20511;-57
2023/10/28 03:56:05;;;;;;;13.73;8.50;;;9.60;99.90;;;;;;5098925;28;20047;-58
2023/10/28 03:58:31;;;;;;;20.92;8.98;;;9.70;99.90;;;;;;5099086;28;20061;-57
2023/10/28 04:00:57;;;;;;;12.43;7.38;;;9.70;99.90;;;;;;5080755;28;20409;-57
2023/10/28 04:03:23;;;;;;;12.80;7.35;;;9.50;99.90;;;;;;5111285;28;20172;-57
2023/10/28 04:05:50;;;;;;;13.73;7.70;;;9.60;99.90;;;;;;5119521;28;20098;-57
2023/10/28 04:08:16;;;;;;;12.65;8.57;;;9.60;99.90;;;;;;5119044;28;20031;-57
2023/10/28 04:10:41;;;;;;;15.27;8.23;;;9.50;99.90;;;;;;5119238;28;20043;-57
2023/10/28 04:13:07;;;;;;;17.05;8.35;;;9.50;99.90;;;;;;5119572;28;20173;-57
2023/10/28 04:15:35;;;;;;;19.10;8.68;;;9.40;99.90;;;;;;5118968;28;20054;-57
2023/10/28 04:18:02;;;;;;;19.85;10.05;;;9.40;99.90;;;;;;5118990;28;20063;-57
2023/10/28 04:20:27;;;;;;;23.45;11.70;;;9.50;99.90;;;;;;5119234;28;20032;-57
2023/10/28 04:22:53;;;;;;;22.02;11.30;;;9.50;99.90;;;;;;5119262;28;20342;-57
2023/10/28 04:25:19;;;;;;;24.88;12.50;;;9.60;99.90;;;;;;5118935;28;20130;-57
2023/10/28 04:27:45;;;;;;;25.40;14.57;;;9.60;99.90;;;;;;5119004;28;20096;-57
2023/10/28 04:30:11;;;;;;;38.25;23.63;;;9.70;99.90;;;;;;5118637;28;20035;-57
2023/10/28 04:32:38;;;;;;;40.53;23.85;;;9.70;99.90;;;;;;5118636;28;20091;-57
2023/10/28 04:35:05;;;;;;;28.92;14.95;;;9.80;99.90;;;;;;5118946;28;20032;-57
2023/10/28 04:37:32;;;;;;;18.13;10.35;;;9.60;99.90;;;;;;5118683;28;20377;-58
2023/10/28 04:39:57;;;;;;;17.67;9.35;;;9.50;99.90;;;;;;5118585;28;20468;-57
2023/10/28 04:42:23;;;;;;;18.63;9.50;;;9.60;99.90;;;;;;5118802;28;20036;-57
2023/10/28 04:44:49;;;;;;;22.20;10.25;;;9.50;99.90;;;;;;5118088;28;20023;-57
2023/10/28 04:47:15;;;;;;;24.33;11.25;;;9.60;99.90;;;;;;5099840;28;20047;-57
2023/10/28 04:49:41;;;;;;;20.75;10.38;;;9.50;99.90;;;;;;5118545;28;20376;-57
2023/10/28 04:52:10;;;;;;;21.13;12.07;;;9.60;99.90;;;;;;5118576;28;20031;-57
2023/10/28 04:54:39;;;;;;;23.80;12.73;;;9.60;99.90;;;;;;5118440;28;20392;-57
2023/10/28 04:57:05;;;;;;;27.73;11.70;;;9.70;99.90;;;;;;5118450;28;20059;-57
2023/10/28 04:59:31;;;;;;;22.52;11.32;;;9.70;99.90;;;;;;5118018;28;20039;-57
2023/10/28 05:01:57;;;;;;;24.08;11.70;;;9.70;99.90;;;;;;5118042;28;20035;-57
2023/10/28 05:04:27;;;;;;;30.30;11.73;;;9.70;99.90;;;;;;5118293;28;20024;-57
2023/10/28 05:06:53;;;;;;;20.23;11.63;;;9.80;99.90;;;;;;5118573;28;20024;-57
2023/10/28 05:09:20;;;;;;;21.85;11.00;;;9.70;99.90;;;;;;5118013;28;20098;-57
2023/10/28 05:11:50;;;;;;;26.00;11.30;;;9.70;99.90;;;;;;5118261;28;20108;-57
2023/10/28 05:14:16;;;;;;;37.30;12.52;;;9.70;99.90;;;;;;5117919;28;20019;-57
2023/10/28 05:16:42;;;;;;;25.30;11.07;;;9.80;99.90;;;;;;5117608;28;20116;-57
2023/10/28 05:19:08;;;;;;;20.85;10.40;;;9.70;99.90;;;;;;5118075;28;20031;-57
2023/10/28 05:21:34;;;;;;;19.58;11.52;;;9.70;99.90;;;;;;5117964;28;20517;-57
2023/10/28 05:24:00;;;;;;;23.45;10.48;;;9.70;99.90;;;;;;5118074;28;20020;-57
2023/10/28 05:26:26;;;;;;;24.83;10.48;;;9.70;99.90;;;;;;5102469;28;20046;-58
2023/10/28 05:28:54;;;;;;;18.83;9.90;;;9.50;99.90;;;;;;5097105;28;20071;-57
2023/10/28 05:31:23;;;;;;;19.30;8.55;;;9.50;99.90;;;;;;5097168;28;20032;-57
2023/10/28 05:33:49;;;;;;;22.02;8.68;;;9.40;99.90;;;;;;5097333;28;20548;-57
2023/10/28 05:36:15;;;;;;;17.13;9.30;;;9.40;99.90;;;;;;5097657;28;20054;-57
2023/10/28 05:38:42;;;;;;;14.98;8.65;;;9.30;99.90;;;;;;5097124;28;20039;-57
2023/10/28 05:41:09;;;;;;;14.75;8.55;;;9.30;99.90;;;;;;5097134;28;20048;-57
2023/10/28 05:43:35;;;;;;;18.20;8.95;;;9.50;99.90;;;;;;5097294;28;20073;-57
2023/10/28 05:46:02;;;;;;;21.65;10.38;;;9.60;99.90;;;;;;5096853;28;20027;-57
2023/10/28 05:48:28;;;;;;;18.13;10.35;;;9.70;99.90;;;;;;5097122;28;20105;-57
2023/10/28 05:50:58;;;;;;;18.95;9.70;;;9.80;99.90;;;;;;5097027;28;20051;-57
2023/10/28 05:53:23;;;;;;;23.35;11.55;;;9.80;99.90;;;;;;5096788;28;20460;-57
2023/10/28 05:55:50;;;;;;;20.85;9.32;;;9.90;99.90;;;;;;5096731;28;20035;-57
2023/10/28 05:58:16;;;;;;;16.88;9.57;;;10.00;99.90;;;;;;5095832;28;20016;-57
2023/10/28 06:00:42;;;;;;;23.25;10.25;;;10.00;99.90;;;;;;5096520;28;20044;-57
2023/10/28 06:03:08;;;;;;;19.30;11.07;;;10.20;99.90;;;;;;5096649;28;20035;-57
2023/10/28 06:05:35;;;;;;;23.55;11.57;;;10.50;99.90;;;;;;5096714;28;20355;-57
2023/10/28 06:08:01;;;;;;;28.73;12.75;;;10.70;99.90;;;;;;5096462;28;20496;-58
2023/10/28 06:10:27;;;;;;;22.52;12.45;;;11.00;99.90;;;;;;5096486;28;20023;-57
2023/10/28 06:12:54;;;;;;;26.77;13.57;;;10.90;99.90;;;;;;5096718;28;20579;-57
2023/10/28 06:15:24;;;;;;;24.67;12.90;;;11.20;99.90;;;;;;5096322;28;20036;-57
2023/10/28 06:17:52;;;;;;;29.67;13.65;;;11.30;99.90;;;;;;5096294;28;20137;-58
2023/10/28 06:20:20;;;;;;;30.17;12.65;;;11.40;99.90;;;;;;5096578;28;20024;-58
2023/10/28 06:22:46;;;;;;;31.60;13.00;;;11.80;99.90;;;;;;5096358;28;20030;-58
2023/10/28 06:25:14;;;;;;;23.25;12.75;;;12.50;99.90;;;;;;5101072;28;20058;-57
2023/10/28 06:27:40;;;;;;;23.15;12.52;;;12.90;99.90;;;;;;5117005;28;20077;-57
2023/10/28 06:30:07;;;;;;;28.08;12.75;;;12.70;99.90;;;;;;5116463;28;20036;-58
2023/10/28 06:32:33;;;;;;;19.05;11.70;;;12.60;99.90;;;;;;5116577;28;20203;-58
2023/10/28 06:34:58;;;;;;;24.20;12.82;;;12.60;99.90;;;;;;5116591;28;20244;-57
2023/10/28 06:37:24;;;;;;;20.63;12.07;;;12.70;99.90;;;;;;5116181;28;20035;-57
2023/10/28 06:39:50;;;;;;;32.75;16.90;;;12.70;99.90;;;;;;5116508;28;20023;-58
2023/10/28 06:42:16;;;;;;;28.83;14.52;;;12.40;99.90;;;;;;5116815;28;20098;-58
2023/10/28 06:44:43;;;;;;;30.13;15.05;;;12.30;99.90;;;;;;5116354;28;20087;-57
2023/10/28 06:47:10;;;;;;;33.30;16.83;;;12.30;99.90;;;;;;5116153;28;20155;-58
2023/10/28 06:49:36;;;;;;;42.17;19.95;;;12.30;99.90;;;;;;5116312;28;20392;-58
2023/10/28 06:52:02;;;;;;;34.67;18.75;;;12.40;99.90;;;;;;5115968;28;20053;-57
2023/10/28 06:54:28;;;;;;;33.28;17.30;;;12.30;99.90;;;;;;5116381;28;20392;-57
2023/10/28 06:56:54;;;;;;;33.00;17.70;;;12.20;99.90;;;;;;5116257;28;20024;-58
2023/10/28 06:59:20;;;;;;;33.90;17.40;;;12.20;99.90;;;;;;5115712;28;20073;-58
2023/10/28 07:01:46;;;;;;;30.40;15.63;;;12.40;99.90;;;;;;5116135;28;20511;-58
2023/10/28 07:04:11;;;;;;;26.65;13.43;;;12.60;99.90;;;;;;5115964;28;20040;-58
2023/10/28 07:06:39;;;;;;;26.17;13.55;;;12.90;99.90;;;;;;5115745;28;20031;-58
2023/10/28 07:09:05;;;;;;;29.27;13.52;;;13.10;99.90;;;;;;5115691;28;20480;-58
2023/10/28 07:11:31;;;;;;;31.63;15.95;;;13.80;99.90;;;;;;5116111;28;20024;-58
2023/10/28 07:13:56;;;;;;;28.70;15.32;;;14.10;99.90;;;;;;5115840;28;20020;-58
2023/10/28 07:16:22;;;;;;;33.50;17.13;;;14.20;99.90;;;;;;5115785;28;20035;-58
2023/10/28 07:18:51;;;;;;;27.52;14.32;;;14.60;99.90;;;;;;5115456;28;20032;-57
2023/10/28 07:21:16;;;;;;;24.92;13.45;;;14.80;99.90;;;;;;5115620;28;20532;-57
2023/10/28 07:23:42;;;;;;;36.33;17.20;;;15.00;99.90;;;;;;5115749;28;20062;-57
2023/10/28 07:26:08;;;;;;;39.08;17.05;;;15.00;99.90;;;;;;5103080;28;20031;-58
2023/10/28 07:28:34;;;;;;;42.30;17.60;;;15.30;99.90;;;;;;5094967;28;20066;-58
2023/10/28 07:31:02;;;;;;;29.90;16.80;;;15.70;99.90;;;;;;5095522;28;20051;-58
2023/10/28 07:33:28;;;;;;;37.25;16.10;;;16.40;99.90;;;;;;5095338;28;20523;-58
2023/10/28 07:35:56;;;;;;;30.38;16.10;;;17.20;99.90;;;;;;5095146;28;20404;-58
2023/10/28 07:38:21;;;;;;;36.22;17.90;;;18.10;99.40;;;;;;5095190;28;20017;-58
2023/10/28 07:40:48;;;;;;;42.70;18.65;;;18.20;98.20;;;;;;5095673;28;20040;-58
2023/10/28 07:43:17;;;;;;;43.47;17.15;;;18.80;94.60;;;;;;5095190;28;20028;-58
2023/10/28 07:45:45;;;;;;;31.40;18.27;;;19.30;93.30;;;;;;5095334;28;20055;-58
2023/10/28 07:48:11;;;;;;;29.92;16.27;;;20.30;92.10;;;;;;5095172;28;20397;-58
2023/10/28 07:50:38;;;;;;;39.67;16.52;;;20.30;90.60;;;;;;5094985;28;20370;-58
2023/10/28 07:53:07;;;;;;;31.83;15.52;;;20.20;90.10;;;;;;5095325;28;20032;-58
2023/10/28 07:55:33;;;;;;;30.02;13.93;;;19.90;89.00;;;;;;5095284;28;20077;-58
2023/10/28 07:58:00;;;;;;;25.48;13.57;;;20.20;89.50;;;;;;5094873;28;20024;-58
2023/10/28 08:00:26;;;;;;;25.75;14.35;;;20.70;86.60;;;;;;5095069;28;20057;-58
2023/10/28 08:02:55;;;;;;;32.30;14.32;;;21.20;84.40;;;;;;5102920;28;20050;-58
2023/10/28 08:05:21;;;;;;;28.92;14.80;;;21.80;79.80;;;;;;5115259;28;20032;-58
2023/10/28 08:07:48;;;;;;;34.65;17.45;;;21.40;77.10;;;;;;5115403;28;20397;-58
2023/10/28 08:10:16;;;;;;;35.42;18.13;;;21.00;78.20;;;;;;5115405;28;20111;-58
2023/10/28 08:12:42;;;;;;;32.60;16.95;;;20.00;82.50;;;;;;5096954;28;20027;-58
2023/10/28 08:15:08;;;;;;;34.75;17.33;;;20.60;82.50;;;;;;5115184;28;20031;-58
2023/10/28 08:17:35;;;;;;;27.05;14.82;;;21.10;82.40;;;;;;5115006;28;20035;-58
2023/10/28 08:20:01;;;;;;;25.50;11.57;;;21.40;80.20;;;;;;5115377;28;20106;-58
2023/10/28 08:22:27;;;;;;;20.25;10.85;;;22.20;76.50;;;;;;5119155;28;20027;-58
2023/10/28 08:24:53;;;;;;;28.77;12.80;;;22.60;74.90;;;;;;5119257;28;20023;-59
2023/10/28 08:27:19;;;;;;;20.83;10.27;;;22.90;71.10;;;;;;5119151;28;20032;-59
2023/10/28 08:29:46;;;;;;;18.05;9.35;;;22.90;72.00;;;;;;5118833;28;20032;-59
2023/10/28 08:32:15;;;;;;;24.17;11.85;;;23.00;67.30;;;;;;5118753;28;20461;-59
2023/10/28 08:34:41;;;;;;;31.73;12.70;;;23.00;67.30;;;;;;5118675;28;20092;-59
2023/10/28 08:37:07;;;;;;;30.27;12.98;;;23.00;70.20;;;;;;5118793;28;20027;-59
2023/10/28 08:39:33;;;;;;;23.55;11.25;;;22.90;71.00;;;;;;5118904;28;20028;-59
2023/10/28 08:42:05;;;;;;;26.67;11.95;;;22.80;68.50;;;;;;5118507;28;20376;-59
2023/10/28 08:44:34;;;;;;;26.50;12.13;;;22.90;66.70;;;;;;5118677;28;20028;-59
2023/10/28 08:47:06;;;;;;;26.95;11.38;;;23.00;68.60;;;;;;5118461;28;20148;-59
2023/10/28 08:49:36;;;;;;;21.58;10.63;;;23.30;67.80;;;;;;5118327;28;20381;-59
2023/10/28 08:52:02;;;;;;;25.83;11.30;;;23.40;66.60;;;;;;5117598;28;20047;-59
2023/10/28 08:54:30;;;;;;;22.92;11.02;;;22.90;65.60;;;;;;5118833;28;20031;-59
2023/10/28 08:56:57;;;;;;;21.88;10.98;;;22.20;67.60;;;;;;5118154;28;20023;-59
2023/10/28 08:59:25;;;;;;;29.70;12.05;;;21.50;72.60;;;;;;5118064;28;20047;-59
2023/10/28 09:01:51;;;;;;;21.48;11.52;;;21.50;72.90;;;;;;5118428;28;20495;-59
2023/10/28 09:04:21;;;;;;;18.27;10.10;;;21.40;73.00;;;;;;5118106;28;20039;-59
2023/10/28 09:06:53;;;;;;;23.02;10.80;;;21.50;74.00;;;;;;5118320;28;20533;-59
2023/10/28 09:09:21;;;;;;;25.75;10.82;;;21.60;75.40;;;;;;5118337;28;20027;-59
2023/10/28 09:11:51;;;;;;;29.05;14.60;;;21.00;75.20;;;;;;5117974;28;20433;-59
2023/10/28 09:14:17;;;;;;;26.20;11.52;;;21.10;77.50;;;;;;5118331;28;20023;-59
2023/10/28 09:16:43;;;;;;;32.30;12.85;;;20.90;78.90;;;;;;5117973;28;20411;-59
2023/10/28 09:19:21;;;;;;;25.70;11.48;;;20.70;81.40;;;;;;5117728;28;20042;-59
2023/10/28 09:21:50;;;;;;;24.35;11.82;;;20.50;80.50;;;;;;5118133;28;20027;-59
2023/10/28 09:24:21;;;;;;;28.60;12.02;;;20.10;82.90;;;;;;5117863;28;20566;-59
2023/10/28 09:26:50;;;;;;;31.48;14.77;;;20.00;84.90;;;;;;5099307;28;20028;-59
2023/10/28 09:29:28;;;;;;;20.98;10.98;;;20.20;84.90;;;;;;5097200;28;20036;-59
2023/10/28 09:32:05;;;;;;;22.48;11.45;;;20.50;83.90;;;;;;5097244;28;20020;-59
2023/10/28 09:34:40;;;;;;;27.00;13.35;;;20.80;86.30;;;;;;5097129;28;20034;-59
2023/10/28 09:37:09;;;;;;;18.52;10.70;;;21.30;83.00;;;;;;5097363;28;20108;-59
2023/10/28 09:39:36;;;;;;;18.92;9.98;;;22.20;81.50;;;;;;5097692;28;20051;-59
2023/10/28 09:42:03;;;;;;;21.30;10.23;;;22.60;78.90;;;;;;5096986;28;20119;-59
2023/10/28 09:44:30;;;;;;;36.05;12.52;;;23.00;76.70;;;;;;5097572;28;20031;-59
2023/10/28 09:47:04;;;;;;;23.08;10.15;;;23.10;73.90;;;;;;5096834;28;20111;-59
2023/10/28 09:49:31;;;;;;;23.00;9.82;;;23.00;72.80;;;;;;5079206;28;20035;-59
2023/10/28 09:52:07;;;;;;;22.17;9.70;;;22.80;72.80;;;;;;5078959;28;20058;-59
2023/10/28 09:54:36;;;;;;;25.77;9.77;;;22.60;72.10;;;;;;5097254;28;20062;-59
2023/10/28 09:57:04;;;;;;;24.55;10.63;;;22.50;74.30;;;;;;5096554;28;20293;-59
2023/10/28 09:59:37;;;;;;;18.25;10.20;;;22.80;75.70;;;;;;5096756;28;20020;-59
2023/10/28 10:02:25;;;;;;;25.05;10.38;;;22.30;75.10;;;;;;5097983;28;20035;-59
2023/10/28 10:05:17;;;;;;;26.63;11.73;;;22.10;76.00;;;;;;5117011;28;20385;-59
2023/10/28 10:07:44;;;;;;;21.55;8.63;;;22.00;73.90;;;;;;5116997;28;20054;-59
2023/10/28 10:10:13;;;;;;;26.30;8.93;;;21.60;73.90;;;;;;5116827;28;20069;-59
2023/10/28 10:12:43;;;;;;;25.48;15.57;;;21.70;77.30;;;;;;5116806;28;20063;-59
2023/10/28 10:15:15;;;;;;;22.15;10.25;;;21.80;75.50;;;;;;5116888;28;20391;-59
2023/10/28 10:17:48;;;;;;;27.08;15.43;;;21.70;73.60;;;;;;5116908;28;20028;-59
2023/10/28 10:20:26;;;;;;;32.65;14.52;;;21.20;73.30;;;;;;5116464;28;20039;-59
2023/10/28 10:23:00;;;;;;;20.20;9.75;;;20.90;74.90;;;;;;5116886;28;20024;-59
2023/10/28 10:25:41;;;;;;;25.95;11.07;;;20.50;79.90;;;;;;5116828;28;20015;-59
2023/10/28 10:28:10;;;;;;;20.52;9.50;;;20.10;85.40;;;;;;5116850;28;20023;-59
2023/10/28 10:30:35;;;;;;;17.02;9.75;;;20.20;85.60;;;;;;5116897;28;20035;-59
2023/10/28 10:33:03;;;;;;;16.73;9.20;;;20.20;91.60;;;;;;5115993;28;20043;-59
2023/10/28 10:35:33;;;;;;;18.23;8.82;;;20.30;93.30;;;;;;5116616;28;20438;-59
2023/10/28 10:38:10;;;;;;;20.33;8.52;;;21.60;83.60;;;;;;5116253;28;20036;-59
2023/10/28 10:40:41;;;;;;;25.63;9.00;;;22.60;80.00;;;;;;5116624;28;20098;-59
2023/10/28 10:43:08;;;;;;;20.67;7.68;;;23.30;72.70;;;;;;5115787;28;20028;-59
2023/10/28 10:45:35;;;;;;;23.05;8.43;;;24.60;68.80;;;;;;5116363;28;20042;-59
2023/10/28 10:48:03;;;;;;;26.33;9.82;;;25.20;67.50;;;;;;5115951;28;20181;-59
2023/10/28 10:50:31;;;;;;;13.68;6.85;;;25.70;64.60;;;;;;5116292;28;20053;-59
2023/10/28 10:52:58;;;;;;;17.25;6.32;;;25.70;57.30;;;;;;5116264;28;20069;-59
2023/10/28 10:55:24;;;;;;;21.58;8.20;;;25.80;56.60;;;;;;5116463;28;20476;-59
2023/10/28 10:57:51;;;;;;;24.13;6.45;;;26.20;58.70;;;;;;5116076;28;20039;-59
2023/10/28 11:00:18;;;;;;;14.80;5.28;;;26.70;55.20;;;;;;5115879;28;20042;-59
2023/10/28 11:02:45;;;;;;;14.23;6.03;;;27.00;51.50;;;;;;5115786;28;20110;-59
2023/10/28 11:05:13;;;;;;;14.70;4.65;;;27.50;50.40;;;;;;5116029;28;20054;-59
2023/10/28 11:07:38;;;;;;;10.38;3.88;;;28.10;42.80;;;;;;5116077;28;20066;-59
2023/10/28 11:10:08;;;;;;;16.95;4.15;;;28.00;43.70;;;;;;5115637;28;20047;-59
2023/10/28 11:12:34;;;;;;;11.40;3.95;;;28.80;40.60;;;;;;5115813;28;20135;-59
2023/10/28 11:15:00;;;;;;;11.23;3.88;;;29.30;41.70;;;;;;5115788;28;20402;-59
2023/10/28 11:17:26;;;;;;;12.43;5.28;;;29.70;38.80;;;;;;5115613;28;20028;-59
2023/10/28 11:19:52;;;;;;;17.00;4.85;;;29.70;38.00;;;;;;5116246;28;20031;-60
2023/10/28 11:22:18;;;;;;;21.30;4.95;;;29.40;33.60;;;;;;5115899;28;20055;-59
2023/10/28 11:24:44;;;;;;;9.27;4.30;;;29.10;35.50;;;;;;5114470;28;20089;-60
2023/10/28 11:27:20;;;;;;;16.65;4.30;;;29.70;34.90;;;;;;5113663;28;20021;-59
2023/10/28 11:29:46;;;;;;;12.88;4.20;;;29.80;34.70;;;;;;5115756;28;20028;-60
2023/10/28 11:32:12;;;;;;;11.73;3.65;;;29.80;38.00;;;;;;5115408;28;20031;-59
2023/10/28 11:34:40;;;;;;;12.52;5.28;;;29.50;33.90;;;;;;5116099;28;20095;-59
2023/10/28 11:37:30;;;;;;;16.67;5.40;;;29.40;34.80;;;;;;5115800;28;20491;-60
2023/10/28 11:39:56;;;;;;;11.05;4.50;;;29.20;34.50;;;;;;5115322;28;20043;-60
2023/10/28 11:42:22;;;;;;;20.05;5.28;;;29.00;33.80;;;;;;5115738;28;20034;-60
2023/10/28 11:44:50;;;;;;;13.70;4.22;;;28.80;37.30;;;;;;5115976;28;20078;-60
2023/10/28 11:47:17;;;;;;;12.18;4.47;;;29.00;36.30;;;;;;5115702;28;20027;-60
2023/10/28 11:49:43;;;;;;;12.15;4.07;;;29.00;34.60;;;;;;5115522;28;20032;-60
2023/10/28 11:52:11;;;;;;;7.93;3.78;;;28.70;34.50;;;;;;5115469;28;20051;-60
2023/10/28 11:54:39;;;;;;;9.65;3.10;;;28.60;34.40;;;;;;5116555;28;20481;-59
2023/10/28 11:57:04;;;;;;;12.48;3.10;;;28.90;32.10;;;;;;5119663;28;20049;-60
2023/10/28 11:59:30;;;;;;;8.20;3.25;;;29.50;31.40;;;;;;5119762;28;20483;-59
2023/10/28 12:01:56;;;;;;;18.23;3.92;;;28.70;31.00;;;;;;5119895;28;20026;-60
2023/10/28 12:04:23;;;;;;;10.05;3.83;;;28.70;32.10;;;;;;5119419;28;20039;-60
2023/10/28 12:06:49;;;;;;;12.52;4.68;;;29.20;33.00;;;;;;5119526;28;20370;-60
2023/10/28 12:09:15;;;;;;;11.95;4.05;;;28.90;31.70;;;;;;5119132;28;20088;-60
2023/10/28 12:11:41;;;;;;;9.02;3.38;;;27.50;31.80;;;;;;5119395;28;20035;-59
2023/10/28 12:14:07;;;;;;;13.15;5.88;;;26.90;34.40;;;;;;5119275;28;20439;-59
2023/10/28 12:16:40;;;;;;;9.77;3.22;;;28.30;34.40;;;;;;5119094;28;20066;-59
2023/10/28 12:19:07;;;;;;;15.95;3.80;;;29.20;33.60;;;;;;5118873;28;20046;-60
2023/10/28 12:21:37;;;;;;;7.95;3.22;;;29.20;29.10;;;;;;5119189;28;20400;-60
2023/10/28 12:24:03;;;;;;;13.38;3.47;;;29.00;30.40;;;;;;5118987;28;20469;-60
2023/10/28 12:26:29;;;;;;;9.30;3.97;;;29.30;31.70;;;;;;5118961;28;20380;-60
2023/10/28 12:28:58;;;;;;;20.00;5.13;;;29.40;32.50;;;;;;5118858;28;20112;-60
2023/10/28 12:31:24;;;;;;;10.35;3.42;;;29.00;32.00;;;;;;5118814;28;20027;-60
2023/10/28 12:33:51;;;;;;;7.57;2.72;;;28.10;31.60;;;;;;5118759;28;20081;-60